createdAt,value
2018-10-15T00:01:27.778Z,99.90
2018-10-15T00:03:55.854Z,99.90
2018-10-15T00:06:23.918Z,99.90
2018-10-15T00:08:51.990Z,99.90
2018-10-15T00:11:20.053Z,99.90
2018-10-15T00:13:48.114Z,99.90
2018-10-15T00:16:16.170Z,99.90
2018-10-15T00:18:44.246Z,99.90
2018-10-15T00:21:12.318Z,99.90
2018-10-15T00:23:40.388Z,99.90
2018-10-15T00:26:08.450Z,99.90
2018-10-15T00:28:36.510Z,99.90
2018-10-15T00:31:04.862Z,99.90
2018-10-15T00:33:32.930Z,99.90
2018-10-15T00:36:00.987Z,99.90
2018-10-15T00:38:29.738Z,99.90
2018-10-15T00:40:57.812Z,99.90
2018-10-15T00:43:25.898Z,99.90
2018-10-15T00:45:53.951Z,99.90
2018-10-15T00:48:22.103Z,99.90
2018-10-15T00:50:50.162Z,99.90
2018-10-15T00:53:18.243Z,99.90
2018-10-15T00:55:46.351Z,99.90
2018-10-15T00:58:14.431Z,99.90
2018-10-15T01:00:42.514Z,99.90
2018-10-15T01:03:10.586Z,99.90
2018-10-15T01:05:38.654Z,99.90
2018-10-15T01:08:06.722Z,99.90
2018-10-15T01:10:34.787Z,99.90
2018-10-15T01:13:02.914Z,99.90
2018-10-15T01:15:30.962Z,99.90
2018-10-15T01:17:59.036Z,99.90
2018-10-15T01:20:27.099Z,99.90
2018-10-15T01:22:55.172Z,99.90
2018-10-15T01:25:23.242Z,99.90
2018-10-15T01:27:51.310Z,99.90
2018-10-15T01:30:19.379Z,99.90
2018-10-15T01:32:47.458Z,99.90
2018-10-15T01:35:15.526Z,99.90
2018-10-15T01:37:43.594Z,99.90
2018-10-15T01:40:11.670Z,99.90
2018-10-15T01:42:39.738Z,99.90
2018-10-15T01:45:08.115Z,99.90
2018-10-15T01:47:36.201Z,99.90
2018-10-15T01:50:04.303Z,99.90
2018-10-15T01:52:32.373Z,99.90
2018-10-15T01:55:00.496Z,99.90
2018-10-15T01:57:28.500Z,99.90
2018-10-15T01:59:56.564Z,99.90
2018-10-15T02:02:24.631Z,99.90
2018-10-15T02:04:52.690Z,99.90
2018-10-15T02:07:20.775Z,99.90
2018-10-15T02:09:48.826Z,99.90
2018-10-15T02:12:16.910Z,99.90
2018-10-15T02:14:44.979Z,99.90
2018-10-15T02:17:13.059Z,99.90
2018-10-15T02:19:41.128Z,99.90
2018-10-15T02:22:09.211Z,99.90
2018-10-15T02:24:37.267Z,99.90
2018-10-15T02:27:05.538Z,99.90
2018-10-15T02:29:33.606Z,99.90
2018-10-15T02:32:01.670Z,99.90
2018-10-15T02:34:29.751Z,99.90
2018-10-15T02:36:57.847Z,99.90
2018-10-15T02:39:25.922Z,99.90
2018-10-15T02:41:53.995Z,99.90
2018-10-15T02:44:22.074Z,99.90
2018-10-15T02:46:50.127Z,99.90
2018-10-15T02:49:18.190Z,99.90
2018-10-15T02:51:46.273Z,99.90
2018-10-15T02:54:14.338Z,99.90
2018-10-15T02:56:42.423Z,99.90
2018-10-15T02:59:10.483Z,99.90
2018-10-15T03:01:38.554Z,99.90
2018-10-15T03:04:06.630Z,99.90
2018-10-15T03:06:34.751Z,99.90
2018-10-15T03:09:02.850Z,99.90
2018-10-15T03:11:30.906Z,99.90
2018-10-15T03:13:58.967Z,99.90
2018-10-15T03:16:27.045Z,99.90
2018-10-15T03:18:55.118Z,99.90
2018-10-15T03:21:23.214Z,99.90
2018-10-15T03:23:51.286Z,99.90
2018-10-15T03:26:19.351Z,99.90
2018-10-15T03:28:47.426Z,99.90
2018-10-15T03:31:15.479Z,99.90
2018-10-15T03:33:43.551Z,99.90
2018-10-15T03:36:11.611Z,99.90
2018-10-15T03:38:39.694Z,99.90
2018-10-15T03:41:07.783Z,99.90
2018-10-15T03:43:35.859Z,99.90
2018-10-15T03:46:04.078Z,99.90
2018-10-15T03:48:32.138Z,99.90
2018-10-15T03:51:00.222Z,99.90
2018-10-15T03:53:28.287Z,99.90
2018-10-15T03:55:56.359Z,99.90
2018-10-15T03:58:24.415Z,99.90
2018-10-15T04:00:52.478Z,99.90
2018-10-15T04:03:20.570Z,99.90
2018-10-15T04:05:48.631Z,99.90
2018-10-15T04:08:16.720Z,99.90
2018-10-15T04:10:45.059Z,99.90
2018-10-15T04:13:13.126Z,99.90
2018-10-15T04:15:41.206Z,99.90
2018-10-15T04:18:09.303Z,99.90
2018-10-15T04:20:37.366Z,99.90
2018-10-15T04:23:05.452Z,99.90
2018-10-15T04:25:33.531Z,99.90
2018-10-15T04:28:01.926Z,99.90
2018-10-15T04:30:30.015Z,99.90
2018-10-15T04:32:58.070Z,99.90
2018-10-15T04:35:26.139Z,99.90
2018-10-15T04:37:54.279Z,99.90
2018-10-15T04:40:22.283Z,99.90
2018-10-15T04:42:50.346Z,99.90
2018-10-15T04:45:18.438Z,99.90
2018-10-15T04:47:46.518Z,99.90
2018-10-15T04:50:14.579Z,99.90
2018-10-15T04:52:42.666Z,99.90
2018-10-15T04:55:10.763Z,99.90
2018-10-15T04:57:38.779Z,99.90
2018-10-15T05:00:08.917Z,99.90
2018-10-15T05:02:37.002Z,99.90
2018-10-15T05:05:06.282Z,99.90
2018-10-15T05:07:34.334Z,99.90
2018-10-15T05:10:02.402Z,99.90
2018-10-15T05:12:30.460Z,99.90
2018-10-15T05:14:58.555Z,99.90
2018-10-15T05:17:26.610Z,99.90
2018-10-15T05:19:54.678Z,99.90
2018-10-15T05:22:22.744Z,99.90
2018-10-15T05:24:50.807Z,99.90
2018-10-15T05:27:18.878Z,99.90
2018-10-15T05:29:47.030Z,99.90
2018-10-15T05:32:15.133Z,99.90
2018-10-15T05:34:43.202Z,99.90
2018-10-15T05:37:11.259Z,99.90
2018-10-15T05:39:39.323Z,99.90
2018-10-15T05:42:07.438Z,99.90
2018-10-15T05:44:35.470Z,99.90
2018-10-15T05:47:03.548Z,99.90
2018-10-15T05:49:31.699Z,99.90
2018-10-15T05:51:59.819Z,99.90
2018-10-15T05:54:27.830Z,99.90
2018-10-15T05:56:55.885Z,99.90
2018-10-15T05:59:23.938Z,99.90
2018-10-15T06:01:51.995Z,99.90
2018-10-15T06:04:20.071Z,99.90
2018-10-15T06:06:48.130Z,99.90
2018-10-15T06:09:16.192Z,99.90
2018-10-15T06:11:44.264Z,99.90
2018-10-15T06:14:12.323Z,99.90
2018-10-15T06:16:40.739Z,99.90
2018-10-15T06:19:08.799Z,99.90
2018-10-15T06:21:37.391Z,99.90
2018-10-15T06:24:06.307Z,99.90
2018-10-15T06:26:34.300Z,99.90
2018-10-15T06:29:02.466Z,99.90
2018-10-15T06:31:30.530Z,99.90
2018-10-15T06:33:58.591Z,99.90
2018-10-15T06:36:26.646Z,99.90
2018-10-15T06:38:54.726Z,99.90
2018-10-15T06:41:22.791Z,99.90
2018-10-15T06:43:50.873Z,99.90
2018-10-15T06:46:19.019Z,99.90
2018-10-15T06:48:46.994Z,99.90
2018-10-15T06:51:15.128Z,99.90
2018-10-15T06:53:43.162Z,99.90
2018-10-15T06:56:11.195Z,99.90
2018-10-15T06:58:39.271Z,99.90
2018-10-15T07:01:07.385Z,99.90
2018-10-15T07:03:35.420Z,99.90
2018-10-15T07:06:03.580Z,99.90
2018-10-15T07:08:31.621Z,99.90
2018-10-15T07:10:59.762Z,99.90
2018-10-15T07:13:27.850Z,99.90
2018-10-15T07:15:55.890Z,99.90
2018-10-15T07:18:30.506Z,99.90
2018-10-15T07:20:58.572Z,99.90
2018-10-15T07:23:26.639Z,99.90
2018-10-15T07:25:54.698Z,99.90
2018-10-15T07:28:22.801Z,99.90
2018-10-15T07:30:50.827Z,99.90
2018-10-15T07:33:18.893Z,99.90
2018-10-15T07:35:46.959Z,99.90
2018-10-15T07:38:15.094Z,99.90
2018-10-15T07:40:43.080Z,99.90
2018-10-15T07:43:11.149Z,99.90
2018-10-15T07:45:39.210Z,99.90
2018-10-15T07:48:07.271Z,99.90
2018-10-15T07:50:35.327Z,99.90
2018-10-15T07:53:03.386Z,99.90
2018-10-15T07:55:31.448Z,99.90
2018-10-15T07:57:59.518Z,99.90
2018-10-15T08:00:27.676Z,99.90
2018-10-15T08:02:55.910Z,99.90
2018-10-15T08:05:24.723Z,99.90
2018-10-15T08:07:52.759Z,99.90
2018-10-15T08:10:20.910Z,99.90
2018-10-15T08:12:49.259Z,99.90
2018-10-15T08:15:18.315Z,99.90
2018-10-15T08:17:46.498Z,99.90
2018-10-15T08:20:15.950Z,99.90
2018-10-15T08:22:44.686Z,99.90
2018-10-15T08:25:12.783Z,99.90
2018-10-15T08:27:41.134Z,99.90
2018-10-15T08:30:11.363Z,99.90
2018-10-15T08:32:39.438Z,99.90
2018-10-15T08:35:07.547Z,99.90
2018-10-15T08:37:35.779Z,99.90
2018-10-15T08:40:04.918Z,99.90
2018-10-15T08:42:32.978Z,99.90
2018-10-15T08:45:01.042Z,99.90
2018-10-15T08:47:29.094Z,99.90
2018-10-15T08:49:57.232Z,99.90
2018-10-15T08:52:25.299Z,99.90
2018-10-15T08:54:53.322Z,99.90
2018-10-15T08:57:21.379Z,99.90
2018-10-15T08:59:49.439Z,99.90
2018-10-15T09:02:17.495Z,99.90
2018-10-15T09:04:45.584Z,99.90
2018-10-15T09:07:13.665Z,99.90
2018-10-15T09:09:41.714Z,99.90
2018-10-15T09:12:09.815Z,99.90
2018-10-15T09:14:37.829Z,99.90
2018-10-15T09:17:05.907Z,99.90
2018-10-15T09:19:33.983Z,99.90
2018-10-15T09:22:02.111Z,99.90
2018-10-15T09:24:30.123Z,99.90
2018-10-15T09:26:58.204Z,99.90
2018-10-15T09:29:26.222Z,99.90
2018-10-15T09:31:54.278Z,99.90
2018-10-15T09:34:22.334Z,99.90
2018-10-15T09:36:50.413Z,99.90
2018-10-15T09:39:18.451Z,99.90
2018-10-15T09:41:46.521Z,99.90
2018-10-15T09:44:14.582Z,99.90
2018-10-15T09:46:42.692Z,99.90
2018-10-15T09:49:10.698Z,99.90
2018-10-15T09:51:38.759Z,99.90
2018-10-15T09:54:06.818Z,99.90
2018-10-15T09:56:34.878Z,99.90
2018-10-15T09:59:02.992Z,99.90
2018-10-15T10:01:35.255Z,99.90
2018-10-15T10:04:03.527Z,99.90
2018-10-15T10:06:31.579Z,99.90
2018-10-15T10:08:59.715Z,99.90
2018-10-15T10:11:27.701Z,99.90
2018-10-15T10:13:55.754Z,99.90
2018-10-15T10:16:23.810Z,99.90
2018-10-15T10:18:51.914Z,99.90
2018-10-15T10:21:19.931Z,99.90
2018-10-15T10:23:47.986Z,99.90
2018-10-15T10:26:16.039Z,99.90
2018-10-15T10:28:44.329Z,99.90
2018-10-15T10:31:12.147Z,99.90
2018-10-15T10:33:59.939Z,99.90
2018-10-15T10:36:27.999Z,99.90
2018-10-15T10:38:58.610Z,99.90
2018-10-15T10:41:26.607Z,99.90
2018-10-15T10:43:54.791Z,99.90
2018-10-15T10:46:23.270Z,99.90
2018-10-15T10:48:51.354Z,99.90
2018-10-15T10:51:19.399Z,99.90
2018-10-15T10:53:47.447Z,99.90
2018-10-15T10:56:15.498Z,99.90
2018-10-15T10:58:43.615Z,99.90
2018-10-15T11:01:11.617Z,99.90
2018-10-15T11:03:40.290Z,99.90
2018-10-15T11:06:08.350Z,99.90
2018-10-15T11:08:36.459Z,98.40
2018-10-15T11:11:04.499Z,96.80
2018-10-15T11:13:32.591Z,95.10
2018-10-15T11:16:00.659Z,93.60
2018-10-15T11:18:28.773Z,93.60
2018-10-15T11:20:56.828Z,93.60
2018-10-15T11:23:24.858Z,92.60
2018-10-15T11:25:52.931Z,90.60
2018-10-15T11:28:20.986Z,88.70
2018-10-15T11:30:49.059Z,88.80
2018-10-15T11:33:17.129Z,88.10
2018-10-15T11:35:45.187Z,84.30
2018-10-15T11:38:13.347Z,82.30
2018-10-15T11:40:41.411Z,81.60
2018-10-15T11:43:09.497Z,80.20
2018-10-15T11:45:37.523Z,78.90
2018-10-15T11:48:05.886Z,78.80
2018-10-15T11:50:33.946Z,78.00
2018-10-15T11:53:02.024Z,75.90
2018-10-15T11:55:30.066Z,73.20
2018-10-15T11:57:58.135Z,72.40
2018-10-15T12:00:26.190Z,70.60
2018-10-15T12:02:54.254Z,68.80
2018-10-15T12:05:22.319Z,69.40
2018-10-15T12:07:50.378Z,65.90
2018-10-15T12:10:18.436Z,66.40
2018-10-15T12:12:46.508Z,65.60
2018-10-15T12:15:15.295Z,63.80
2018-10-15T12:17:43.781Z,65.20
2018-10-15T12:20:12.874Z,66.80
2018-10-15T12:22:41.032Z,64.80
2018-10-15T12:25:12.395Z,64.80
2018-10-15T12:27:40.469Z,63.90
2018-10-15T12:30:09.466Z,63.10
2018-10-15T12:32:37.550Z,61.50
2018-10-15T12:35:06.899Z,63.90
2018-10-15T12:37:34.974Z,62.70
2018-10-15T12:40:03.035Z,59.90
2018-10-15T12:42:31.115Z,61.70
2018-10-15T12:44:59.167Z,59.20
2018-10-15T12:47:27.272Z,58.70
2018-10-15T12:49:55.302Z,56.30
2018-10-15T12:52:23.370Z,57.00
2018-10-15T12:54:51.438Z,57.90
2018-10-15T12:57:19.510Z,56.40
2018-10-15T12:59:47.596Z,55.60
2018-10-15T13:02:15.650Z,55.30
2018-10-15T13:04:43.699Z,56.30
2018-10-15T13:07:11.787Z,55.10
2018-10-15T13:09:39.843Z,54.40
2018-10-15T13:12:07.911Z,53.40
2018-10-15T13:14:35.967Z,54.10
2018-10-15T13:17:04.030Z,53.90
2018-10-15T13:19:32.083Z,53.40
2018-10-15T13:22:00.147Z,53.40
2018-10-15T13:24:28.206Z,51.00
2018-10-15T13:26:56.267Z,51.30
2018-10-15T13:29:24.327Z,51.50
2018-10-15T13:31:52.391Z,52.60
2018-10-15T13:34:20.520Z,51.80
2018-10-15T13:36:48.630Z,51.40
2018-10-15T13:39:16.635Z,49.70
2018-10-15T13:41:44.686Z,49.40
2018-10-15T13:44:12.759Z,50.80
2018-10-15T13:46:40.815Z,48.90
2018-10-15T13:49:08.888Z,49.10
2018-10-15T13:51:36.942Z,49.20
2018-10-15T13:54:05.119Z,49.90
2018-10-15T13:56:33.179Z,49.90
2018-10-15T13:59:01.246Z,50.30
2018-10-15T14:01:29.312Z,49.90
2018-10-15T14:03:57.375Z,49.30
2018-10-15T14:06:25.431Z,48.00
2018-10-15T14:08:53.507Z,46.90
2018-10-15T14:11:21.563Z,47.60
2018-10-15T14:13:49.614Z,47.90
2018-10-15T14:16:17.671Z,50.30
2018-10-15T14:18:45.742Z,49.50
2018-10-15T14:21:13.791Z,48.80
2018-10-15T14:23:41.918Z,49.90
2018-10-15T14:26:09.911Z,51.20
2018-10-15T14:28:37.974Z,49.20
2018-10-15T14:31:06.077Z,48.30
2018-10-15T14:33:34.094Z,50.00
2018-10-15T14:36:02.149Z,49.80
2018-10-15T14:38:31.012Z,48.70
2018-10-15T14:40:58.994Z,49.60
2018-10-15T14:43:27.067Z,48.60
2018-10-15T14:45:55.131Z,49.80
2018-10-15T14:48:23.187Z,48.60
2018-10-15T14:50:51.242Z,49.90
2018-10-15T14:53:19.295Z,49.00
2018-10-15T14:55:47.350Z,49.10
2018-10-15T14:58:15.473Z,50.70
2018-10-15T15:00:43.475Z,50.90
2018-10-15T15:03:11.536Z,50.30
2018-10-15T15:05:39.598Z,50.70
2018-10-15T15:08:07.672Z,51.40
2018-10-15T15:10:47.307Z,51.70
2018-10-15T15:13:26.797Z,53.10
2018-10-15T15:15:54.819Z,53.50
2018-10-15T15:18:22.882Z,53.50
2018-10-15T15:20:50.944Z,53.60
2018-10-15T15:23:19.000Z,54.10
2018-10-15T15:25:47.055Z,54.60
2018-10-15T15:28:15.115Z,54.50
2018-10-15T15:30:43.178Z,55.10
2018-10-15T15:33:11.238Z,55.60
2018-10-15T15:35:39.302Z,55.90
2018-10-15T15:38:07.354Z,56.90
2018-10-15T15:40:35.411Z,56.90
2018-10-15T15:43:03.455Z,57.20
2018-10-15T15:45:31.610Z,57.80
2018-10-15T15:47:59.594Z,58.40
2018-10-15T15:50:28.503Z,59.40
2018-10-15T15:52:56.562Z,60.60
2018-10-15T15:55:24.623Z,62.10
2018-10-15T15:57:52.686Z,63.60
2018-10-15T16:00:20.739Z,65.30
2018-10-15T16:02:48.799Z,65.50
2018-10-15T16:05:16.854Z,66.00
2018-10-15T16:07:44.914Z,67.00
2018-10-15T16:10:12.973Z,67.90
2018-10-15T16:12:41.035Z,69.00
2018-10-15T16:15:09.925Z,69.10
2018-10-15T16:17:38.018Z,69.80
2018-10-15T16:20:06.842Z,70.30
2018-10-15T16:22:34.911Z,70.80
2018-10-15T16:25:02.987Z,71.90
2018-10-15T16:27:31.046Z,72.80
2018-10-15T16:29:59.110Z,73.30
2018-10-15T16:32:27.180Z,74.70
2018-10-15T16:34:55.234Z,74.30
2018-10-15T16:37:23.332Z,75.30
2018-10-15T16:39:51.391Z,74.70
2018-10-15T16:42:19.486Z,75.10
2018-10-15T16:44:47.617Z,75.40
2018-10-15T16:47:15.675Z,75.90
2018-10-15T16:49:43.765Z,76.30
2018-10-15T16:52:11.839Z,76.50
2018-10-15T16:54:39.907Z,77.40
2018-10-15T16:57:07.986Z,77.10
2018-10-15T16:59:36.050Z,77.50
2018-10-15T17:02:04.275Z,77.90
2018-10-15T17:04:32.347Z,78.40
2018-10-15T17:07:00.417Z,78.90
2018-10-15T17:09:28.495Z,79.00
2018-10-15T17:11:56.583Z,79.30
2018-10-15T17:14:24.607Z,79.30
2018-10-15T17:16:52.683Z,79.70
2018-10-15T17:19:20.746Z,79.70
2018-10-15T17:21:48.817Z,77.90
2018-10-15T17:24:16.910Z,77.50
2018-10-15T17:26:45.003Z,78.90
2018-10-15T17:29:13.101Z,78.60
2018-10-15T17:31:41.163Z,77.20
2018-10-15T17:34:09.247Z,77.30
2018-10-15T17:36:37.384Z,77.20
2018-10-15T17:39:08.514Z,77.80
2018-10-15T17:41:36.614Z,77.20
2018-10-15T17:44:05.534Z,77.60
2018-10-15T17:46:33.664Z,77.10
2018-10-15T17:49:01.739Z,78.10
2018-10-15T17:51:29.800Z,78.00
2018-10-15T17:53:57.895Z,78.20
2018-10-15T17:56:26.039Z,78.60
2018-10-15T17:58:54.161Z,78.90
2018-10-15T18:01:22.201Z,81.00
2018-10-15T18:03:50.366Z,84.90
2018-10-15T18:06:18.450Z,82.60
2018-10-15T18:08:46.631Z,81.70
2018-10-15T18:11:14.815Z,82.10
2018-10-15T18:13:42.863Z,83.30
2018-10-15T18:16:11.031Z,83.00
2018-10-15T18:18:39.102Z,83.20
2018-10-15T18:21:07.210Z,83.70
2018-10-15T18:23:35.258Z,83.90
2018-10-15T18:26:03.308Z,83.80
2018-10-15T18:28:31.371Z,84.70
2018-10-15T18:30:59.427Z,84.70
2018-10-15T18:33:27.483Z,91.80
2018-10-15T18:35:55.547Z,89.70
2018-10-15T18:38:23.600Z,90.30
2018-10-15T18:40:51.659Z,88.30
2018-10-15T18:43:19.735Z,87.60
2018-10-15T18:45:47.795Z,89.90
2018-10-15T18:48:15.843Z,88.30
2018-10-15T18:50:43.894Z,87.60
2018-10-15T18:53:11.955Z,88.10
2018-10-15T18:55:40.011Z,87.10
2018-10-15T18:58:08.086Z,87.40
2018-10-15T19:00:36.152Z,89.50
2018-10-15T19:03:04.220Z,89.40
2018-10-15T19:05:32.267Z,88.90
2018-10-15T19:08:00.311Z,89.00
2018-10-15T19:10:28.354Z,90.00
2018-10-15T19:12:56.408Z,90.20
2018-10-15T19:15:24.483Z,89.90
2018-10-15T19:17:52.564Z,90.20
2018-10-15T19:20:20.618Z,90.60
2018-10-15T19:22:48.757Z,90.70
2018-10-15T19:25:16.746Z,91.20
2018-10-15T19:27:44.831Z,92.00
2018-10-15T19:30:13.875Z,92.30
2018-10-15T19:32:42.252Z,92.90
2018-10-15T19:35:10.903Z,93.00
2018-10-15T19:37:39.222Z,93.30
2018-10-15T19:40:07.294Z,93.60
2018-10-15T19:42:35.392Z,94.30
2018-10-15T19:45:03.455Z,95.10
2018-10-15T19:47:31.621Z,95.20
2018-10-15T19:49:59.654Z,95.60
2018-10-15T19:52:27.734Z,95.40
2018-10-15T19:54:55.861Z,95.60
2018-10-15T19:57:23.958Z,95.90
2018-10-15T19:59:51.993Z,96.00
2018-10-15T20:02:20.051Z,96.50
2018-10-15T20:04:48.098Z,96.80
2018-10-15T20:07:16.183Z,97.30
2018-10-15T20:09:44.317Z,97.10
2018-10-15T20:12:12.299Z,97.60
2018-10-15T20:14:40.358Z,98.00
2018-10-15T20:17:08.721Z,98.10
2018-10-15T20:19:37.094Z,99.00
2018-10-15T20:22:08.182Z,98.60
2018-10-15T20:24:36.534Z,98.80
2018-10-15T20:27:04.902Z,99.90
2018-10-15T20:29:32.955Z,99.40
2018-10-15T20:32:01.007Z,99.90
2018-10-15T20:34:29.059Z,99.90
2018-10-15T20:36:57.219Z,99.90
2018-10-15T20:39:25.258Z,99.90
2018-10-15T20:41:53.322Z,99.90
2018-10-15T20:44:21.438Z,99.90
2018-10-15T20:46:49.467Z,99.90
2018-10-15T20:49:17.574Z,99.90
2018-10-15T20:51:45.626Z,99.90
2018-10-15T20:54:13.721Z,99.90
2018-10-15T20:56:41.800Z,99.90
2018-10-15T20:59:09.870Z,99.90
2018-10-15T21:01:37.903Z,99.90
2018-10-15T21:04:06.060Z,99.90
2018-10-15T21:06:34.150Z,99.90
2018-10-15T21:09:02.177Z,99.90
2018-10-15T21:11:30.219Z,99.90
2018-10-15T21:13:58.284Z,99.90
2018-10-15T21:16:26.538Z,99.90
2018-10-15T21:18:54.607Z,99.90
2018-10-15T21:21:22.654Z,99.90
2018-10-15T21:23:50.719Z,99.90
2018-10-15T21:26:18.766Z,99.90
2018-10-15T21:28:46.818Z,99.90
2018-10-15T21:31:14.875Z,99.90
2018-10-15T21:33:42.930Z,99.90
2018-10-15T21:36:11.008Z,99.90
2018-10-15T21:38:39.062Z,99.90
2018-10-15T21:41:07.293Z,99.90
2018-10-15T21:43:35.452Z,99.90
2018-10-15T21:46:03.818Z,99.90
2018-10-15T21:48:31.779Z,99.90
2018-10-15T21:50:59.850Z,99.90
2018-10-15T21:53:27.911Z,99.90
2018-10-15T21:55:56.037Z,99.90
2018-10-15T21:58:24.030Z,99.90
2018-10-15T22:00:53.007Z,99.90
2018-10-15T22:03:21.399Z,99.90
2018-10-15T22:05:49.682Z,99.90
2018-10-15T22:08:17.694Z,99.90
2018-10-15T22:10:45.844Z,99.90
2018-10-15T22:13:13.911Z,99.90
2018-10-15T22:15:41.987Z,99.90
2018-10-15T22:18:10.103Z,99.90
2018-10-15T22:20:38.269Z,99.90
2018-10-15T22:23:06.326Z,99.90
2018-10-15T22:25:34.517Z,99.90
2018-10-15T22:28:02.586Z,99.90
2018-10-15T22:30:30.684Z,99.90
2018-10-15T22:32:58.743Z,99.90
2018-10-15T22:35:26.804Z,99.90
2018-10-15T22:37:54.875Z,99.90
2018-10-15T22:40:22.951Z,99.90
2018-10-15T22:42:51.058Z,99.90
2018-10-15T22:45:19.111Z,99.90
2018-10-15T22:47:47.266Z,99.90
2018-10-15T22:50:15.345Z,99.90
2018-10-15T22:52:43.524Z,99.90
2018-10-15T22:55:11.582Z,99.90
2018-10-15T22:57:39.643Z,99.90
2018-10-15T23:00:13.387Z,99.90
2018-10-15T23:02:41.484Z,99.90
2018-10-15T23:05:09.555Z,99.90
2018-10-15T23:07:37.679Z,99.90
2018-10-15T23:10:05.885Z,99.90
2018-10-15T23:12:33.953Z,99.90
2018-10-15T23:15:02.031Z,99.90
2018-10-15T23:17:30.122Z,99.90
2018-10-15T23:19:58.196Z,99.90
2018-10-15T23:22:26.243Z,99.90
2018-10-15T23:24:54.327Z,99.90
2018-10-15T23:27:22.419Z,99.90
2018-10-15T23:29:50.511Z,99.90
2018-10-15T23:32:18.586Z,99.90
2018-10-15T23:34:46.735Z,99.90
2018-10-15T23:37:14.795Z,99.90
2018-10-15T23:39:42.872Z,99.90
2018-10-15T23:42:10.983Z,99.90
2018-10-15T23:44:39.038Z,99.90
2018-10-15T23:47:07.119Z,99.90
2018-10-15T23:49:35.202Z,99.90
2018-10-15T23:52:03.295Z,99.90
2018-10-15T23:54:31.363Z,99.90
2018-10-15T23:56:59.467Z,99.90
2018-10-15T23:59:27.898Z,99.90
